createdAt,value
2023-04-03T00:00:01.472Z,70.09
2023-04-03T00:01:01.455Z,66.71
2023-04-03T00:02:01.529Z,69.29
2023-04-03T00:03:01.470Z,71.06
2023-04-03T00:04:01.436Z,71.54
2023-04-03T00:05:01.375Z,72.03
2023-04-03T00:06:01.352Z,73.15
2023-04-03T00:07:01.366Z,60.91
2023-04-03T00:08:01.324Z,65.90
2023-04-03T00:09:01.298Z,65.58
2023-04-03T00:10:01.276Z,63.81
2023-04-03T00:11:01.255Z,71.38
2023-04-03T00:12:01.276Z,68.48
2023-04-03T00:13:01.228Z,66.06
2023-04-03T00:14:01.249Z,70.90
2023-04-03T00:15:01.186Z,64.29
2023-04-03T00:16:01.163Z,69.61
2023-04-03T00:17:01.224Z,67.51
2023-04-03T00:18:01.150Z,64.94
2023-04-03T00:19:01.107Z,69.61
2023-04-03T00:20:01.118Z,71.70
2023-04-03T00:21:01.067Z,69.77
2023-04-03T00:22:01.076Z,69.45
2023-04-03T00:23:01.042Z,71.06
2023-04-03T00:24:01.015Z,68.96
2023-04-03T00:25:01.028Z,72.35
2023-04-03T00:26:01.982Z,71.87
2023-04-03T00:27:00.983Z,72.19
2023-04-03T00:28:00.940Z,70.74
2023-04-03T00:29:00.920Z,67.03
2023-04-03T00:30:01.909Z,71.70
2023-04-03T00:31:00.924Z,66.06
2023-04-03T00:32:00.888Z,66.71
2023-04-03T00:33:00.864Z,63.65
2023-04-03T00:34:00.821Z,63.81
2023-04-03T00:35:00.805Z,69.29
2023-04-03T00:36:00.822Z,68.00
2023-04-03T00:37:00.923Z,67.35
2023-04-03T00:38:00.772Z,70.90
2023-04-03T00:39:00.730Z,70.09
2023-04-03T00:40:00.755Z,71.87
2023-04-03T00:41:01.383Z,69.93
2023-04-03T00:42:00.701Z,71.87
2023-04-03T00:43:01.662Z,68.64
2023-04-03T00:44:00.650Z,65.42
2023-04-03T00:45:00.626Z,66.23
2023-04-03T00:46:00.618Z,73.15
2023-04-03T00:47:01.552Z,68.96
2023-04-03T00:48:00.655Z,71.22
2023-04-03T00:49:00.555Z,75.09
2023-04-03T00:50:00.520Z,72.51
2023-04-03T00:51:00.521Z,69.13
2023-04-03T00:52:00.521Z,71.22
2023-04-03T00:53:00.473Z,72.35
2023-04-03T00:54:00.457Z,73.96
2023-04-03T00:55:00.421Z,67.51
2023-04-03T00:56:00.414Z,70.58
2023-04-03T00:57:00.449Z,73.80
2023-04-03T00:58:00.368Z,72.99
2023-04-03T00:59:00.352Z,70.42
2023-04-03T01:00:00.365Z,70.74
2023-04-03T01:01:00.305Z,72.67
2023-04-03T01:02:00.644Z,68.00
2023-04-03T01:03:00.308Z,70.25
2023-04-03T01:04:00.278Z,72.99
2023-04-03T01:05:00.229Z,67.19
2023-04-03T01:06:00.208Z,72.19
2023-04-03T01:07:00.221Z,70.74
2023-04-03T01:08:00.160Z,67.19
2023-04-03T01:09:01.159Z,68.96
2023-04-03T01:10:00.157Z,72.35
2023-04-03T01:11:00.110Z,69.93
2023-04-03T01:12:00.152Z,73.15
2023-04-03T01:13:00.111Z,74.12
2023-04-03T01:14:00.065Z,70.58
2023-04-03T01:15:00.063Z,69.29
2023-04-03T01:16:00.046Z,73.64
2023-04-03T01:16:59.993Z,71.22
2023-04-03T01:17:59.995Z,69.29
2023-04-03T01:18:59.954Z,68.32
2023-04-03T01:19:59.962Z,72.19
2023-04-03T01:20:59.915Z,69.77
2023-04-03T01:21:59.893Z,70.42
2023-04-03T01:22:59.912Z,74.28
2023-04-03T01:23:59.854Z,74.77
2023-04-03T01:24:59.837Z,72.51
2023-04-03T01:25:59.822Z,72.19
2023-04-03T01:26:59.794Z,71.54
2023-04-03T01:27:59.798Z,74.12
2023-04-03T01:28:59.774Z,74.93
2023-04-03T01:29:59.736Z,66.39
2023-04-03T01:30:59.709Z,72.35
2023-04-03T01:32:00.692Z,68.96
2023-04-03T01:32:59.730Z,70.25
2023-04-03T01:33:59.658Z,72.51
2023-04-03T01:34:59.632Z,70.09
2023-04-03T01:35:59.648Z,70.58
2023-04-03T01:36:59.593Z,73.64
2023-04-03T01:37:59.607Z,71.87
2023-04-03T01:38:59.554Z,72.67
2023-04-03T01:39:59.564Z,73.48
2023-04-03T01:40:59.515Z,74.77
2023-04-03T01:41:59.493Z,72.03
2023-04-03T01:42:59.498Z,68.64
2023-04-03T01:43:59.452Z,71.87
2023-04-03T01:44:59.435Z,69.93
2023-04-03T01:45:59.452Z,74.28
2023-04-03T01:46:59.397Z,74.77
2023-04-03T01:47:59.442Z,73.32
2023-04-03T01:48:59.351Z,73.96
2023-04-03T01:49:59.333Z,75.57
2023-04-03T01:50:59.314Z,65.74
2023-04-03T01:51:59.293Z,66.71
2023-04-03T01:52:59.309Z,76.05
2023-04-03T01:53:59.258Z,74.28
2023-04-03T01:54:59.240Z,75.41
2023-04-03T01:55:59.213Z,73.15
2023-04-03T01:56:59.212Z,72.83
2023-04-03T01:57:59.198Z,73.80
2023-04-03T01:58:59.151Z,73.15
2023-04-03T01:59:59.138Z,74.12
2023-04-03T02:00:59.134Z,73.96
2023-04-03T02:01:59.090Z,74.28
2023-04-03T02:02:59.118Z,73.80
2023-04-03T02:03:59.077Z,70.25
2023-04-03T02:04:59.029Z,72.51
2023-04-03T02:05:59.012Z,71.87
2023-04-03T02:06:59.017Z,71.70
2023-04-03T02:07:58.996Z,74.77
2023-04-03T02:08:58.946Z,74.77
2023-04-03T02:09:58.923Z,72.67
2023-04-03T02:10:58.904Z,74.60
2023-04-03T02:11:58.880Z,71.54
2023-04-03T02:12:58.909Z,74.77
2023-04-03T02:13:58.837Z,72.03
2023-04-03T02:14:58.825Z,71.87
2023-04-03T02:15:58.840Z,72.03
2023-04-03T02:16:58.833Z,74.77
2023-04-03T02:17:58.820Z,76.70
2023-04-03T02:18:58.770Z,73.96
2023-04-03T02:19:58.723Z,72.99
2023-04-03T02:20:58.704Z,73.80
2023-04-03T02:21:58.680Z,75.41
2023-04-03T02:22:58.686Z,73.32
2023-04-03T02:23:58.637Z,71.06
2023-04-03T02:24:58.628Z,73.48
2023-04-03T02:25:58.598Z,75.09
2023-04-03T02:26:58.587Z,74.77
2023-04-03T02:27:58.581Z,72.51
2023-04-03T02:28:58.534Z,68.96
2023-04-03T02:29:58.516Z,76.38
2023-04-03T02:30:58.513Z,75.89
2023-04-03T02:31:58.469Z,73.15
2023-04-03T02:32:58.501Z,76.22
2023-04-03T02:33:58.430Z,72.67
2023-04-03T02:34:58.404Z,74.28
2023-04-03T02:35:58.401Z,73.64
2023-04-03T02:36:58.369Z,71.06
2023-04-03T02:37:58.377Z,74.12
2023-04-03T02:38:58.335Z,74.77
2023-04-03T02:39:58.335Z,74.44
2023-04-03T02:40:58.287Z,68.96
2023-04-03T02:41:58.269Z,71.70
2023-04-03T02:42:58.284Z,72.67
2023-04-03T02:43:58.226Z,76.05
2023-04-03T02:44:59.464Z,76.38
2023-04-03T02:45:58.462Z,72.83
2023-04-03T02:46:58.190Z,78.47
2023-04-03T02:47:58.243Z,74.77
2023-04-03T02:48:58.130Z,73.32
2023-04-03T02:49:58.097Z,73.64
2023-04-03T02:50:59.108Z,76.86
2023-04-03T02:51:58.087Z,75.89
2023-04-03T02:52:58.074Z,74.93
2023-04-03T02:53:58.025Z,76.05
2023-04-03T02:54:58.006Z,68.96
2023-04-03T02:55:57.991Z,71.38
2023-04-03T02:56:57.986Z,73.48
2023-04-03T02:57:57.970Z,75.25
2023-04-03T02:58:57.940Z,75.09
2023-04-03T02:59:57.918Z,74.93
2023-04-03T03:00:57.897Z,74.28
2023-04-03T03:01:57.916Z,77.02
2023-04-03T03:02:57.917Z,77.02
2023-04-03T03:03:57.825Z,76.05
2023-04-03T03:04:57.821Z,72.03
2023-04-03T03:05:57.779Z,73.15
2023-04-03T03:06:57.760Z,77.67
2023-04-03T03:07:57.769Z,77.99
2023-04-03T03:08:57.716Z,69.61
2023-04-03T03:09:57.696Z,74.12
2023-04-03T03:10:57.680Z,73.32
2023-04-03T03:11:57.653Z,74.77
2023-04-03T03:12:57.670Z,72.67
2023-04-03T03:13:57.625Z,70.74
2023-04-03T03:14:57.601Z,74.60
2023-04-03T03:15:57.648Z,73.15
2023-04-03T03:16:57.582Z,74.77
2023-04-03T03:17:57.628Z,76.86
2023-04-03T03:18:57.968Z,75.57
2023-04-03T03:19:58.491Z,72.03
2023-04-03T03:20:57.474Z,73.64
2023-04-03T03:21:57.449Z,76.22
2023-04-03T03:22:57.457Z,77.18
2023-04-03T03:23:57.410Z,75.73
2023-04-03T03:24:57.385Z,75.41
2023-04-03T03:25:57.370Z,75.09
2023-04-03T03:26:57.341Z,76.05
2023-04-03T03:27:57.343Z,76.86
2023-04-03T03:28:58.305Z,76.05
2023-04-03T03:29:57.277Z,76.54
2023-04-03T03:30:57.255Z,75.09
2023-04-03T03:31:57.235Z,76.70
2023-04-03T03:32:57.278Z,78.96
2023-04-03T03:33:57.201Z,75.89
2023-04-03T03:34:57.178Z,75.57
2023-04-03T03:35:57.167Z,73.15
2023-04-03T03:36:57.136Z,77.18
2023-04-03T03:37:57.145Z,75.57
2023-04-03T03:38:57.083Z,77.18
2023-04-03T03:39:57.067Z,76.54
2023-04-03T03:40:57.041Z,76.05
2023-04-03T03:41:57.029Z,76.54
2023-04-03T03:42:57.034Z,76.22
2023-04-03T03:43:56.983Z,76.86
2023-04-03T03:44:56.982Z,76.86
2023-04-03T03:45:56.986Z,76.86
2023-04-03T03:46:56.953Z,76.54
2023-04-03T03:47:56.982Z,74.93
2023-04-03T03:48:56.873Z,76.22
2023-04-03T03:49:56.854Z,77.50
2023-04-03T03:50:56.835Z,77.34
2023-04-03T03:51:56.816Z,75.25
2023-04-03T03:52:56.820Z,73.15
2023-04-03T03:53:56.773Z,69.13
2023-04-03T03:54:56.751Z,78.31
2023-04-03T03:55:56.729Z,76.54
2023-04-03T03:56:56.752Z,79.28
2023-04-03T03:57:56.725Z,71.54
2023-04-03T03:58:56.666Z,76.86
2023-04-03T03:59:56.648Z,76.05
2023-04-03T04:00:56.632Z,78.63
2023-04-03T04:01:56.634Z,76.05
2023-04-03T04:02:58.761Z,77.83
2023-04-03T04:03:56.707Z,77.50
2023-04-03T04:04:56.541Z,76.86
2023-04-03T04:05:56.521Z,77.99
2023-04-03T04:06:56.493Z,77.02
2023-04-03T04:07:57.506Z,77.02
2023-04-03T04:08:56.460Z,73.80
2023-04-03T04:09:56.446Z,75.09
2023-04-03T04:10:56.416Z,76.05
2023-04-03T04:11:56.409Z,78.15
2023-04-03T04:12:58.451Z,77.18
2023-04-03T04:13:57.362Z,76.86
2023-04-03T04:14:56.338Z,77.67
2023-04-03T04:15:56.319Z,75.57
2023-04-03T04:16:56.359Z,75.73
2023-04-03T04:17:56.346Z,76.05
2023-04-03T04:18:56.265Z,76.54
2023-04-03T04:19:56.236Z,74.93
2023-04-03T04:20:56.213Z,72.67
2023-04-03T04:21:56.194Z,74.60
2023-04-03T04:22:56.208Z,78.47
2023-04-03T04:23:56.154Z,77.83
2023-04-03T04:24:56.130Z,76.70
2023-04-03T04:25:56.112Z,78.15
2023-04-03T04:26:56.090Z,78.15
2023-04-03T04:27:56.100Z,77.83
2023-04-03T04:28:56.049Z,78.96
2023-04-03T04:29:56.663Z,77.83
2023-04-03T04:30:56.057Z,76.54
2023-04-03T04:31:56.011Z,77.02
2023-04-03T04:32:56.006Z,75.25
2023-04-03T04:33:55.971Z,76.22
2023-04-03T04:34:55.986Z,76.86
2023-04-03T04:35:55.948Z,77.99
2023-04-03T04:36:55.973Z,77.83
2023-04-03T04:37:55.861Z,75.09
2023-04-03T04:38:55.886Z,73.80
2023-04-03T04:39:55.820Z,78.79
2023-04-03T04:40:55.796Z,76.70
2023-04-03T04:41:55.779Z,78.31
2023-04-03T04:42:55.751Z,78.96
2023-04-03T04:43:55.765Z,78.79
2023-04-03T04:44:55.717Z,76.70
2023-04-03T04:45:55.703Z,77.99
2023-04-03T04:46:55.676Z,77.02
2023-04-03T04:47:55.680Z,76.22
2023-04-03T04:48:55.657Z,76.54
2023-04-03T04:49:55.609Z,78.79
2023-04-03T04:50:55.588Z,75.09
2023-04-03T04:51:55.571Z,77.34
2023-04-03T04:52:55.564Z,74.60
2023-04-03T04:53:56.185Z,73.15
2023-04-03T04:54:56.507Z,78.31
2023-04-03T04:55:55.487Z,80.24
2023-04-03T04:56:55.538Z,76.54
2023-04-03T04:57:55.448Z,76.54
2023-04-03T04:58:55.458Z,75.09
2023-04-03T04:59:55.407Z,77.50
2023-04-03T05:00:55.386Z,75.57
2023-04-03T05:01:55.434Z,76.54
2023-04-03T05:02:55.388Z,78.47
2023-04-03T05:03:55.352Z,76.54
2023-04-03T05:04:55.336Z,78.79
2023-04-03T05:05:55.282Z,77.18
2023-04-03T05:06:55.268Z,77.99
2023-04-03T05:07:55.243Z,80.08
2023-04-03T05:08:55.256Z,78.47
2023-04-03T05:09:55.190Z,78.79
2023-04-03T05:10:56.565Z,76.22
2023-04-03T05:11:56.156Z,79.76
2023-04-03T05:12:55.136Z,77.83
2023-04-03T05:13:55.140Z,78.63
2023-04-03T05:14:55.093Z,77.67
2023-04-03T05:15:55.075Z,80.57
2023-04-03T05:16:55.053Z,76.54
2023-04-03T05:17:55.070Z,75.25
2023-04-03T05:18:55.051Z,79.60
2023-04-03T05:19:55.008Z,77.50
2023-04-03T05:20:54.972Z,76.22
2023-04-03T05:21:54.954Z,76.70
2023-04-03T05:22:54.940Z,78.47
2023-04-03T05:23:54.953Z,77.83
2023-04-03T05:24:54.899Z,78.15
2023-04-03T05:25:54.882Z,77.02
2023-04-03T05:26:54.870Z,77.50
2023-04-03T05:27:54.850Z,76.70
2023-04-03T05:28:54.865Z,77.02
2023-04-03T05:29:54.812Z,77.67
2023-04-03T05:30:54.791Z,73.80
2023-04-03T05:31:54.884Z,76.38
2023-04-03T05:32:54.769Z,78.15
2023-04-03T05:33:54.763Z,78.63
2023-04-03T05:34:54.714Z,78.15
2023-04-03T05:35:54.787Z,78.15
2023-04-03T05:36:54.677Z,74.60
2023-04-03T05:37:54.672Z,75.09
2023-04-03T05:38:54.664Z,75.41
2023-04-03T05:39:54.620Z,76.86
2023-04-03T05:40:54.639Z,78.63
2023-04-03T05:41:54.593Z,77.83
2023-04-03T05:42:54.596Z,75.57
2023-04-03T05:43:54.566Z,76.38
2023-04-03T05:44:54.522Z,75.57
2023-04-03T05:45:54.596Z,75.57
2023-04-03T05:46:54.488Z,74.93
2023-04-03T05:47:54.597Z,78.63
2023-04-03T05:48:54.478Z,77.99
2023-04-03T05:49:54.435Z,77.50
2023-04-03T05:50:55.817Z,78.63
2023-04-03T05:51:54.391Z,79.92
2023-04-03T05:52:54.373Z,78.31
2023-04-03T05:53:54.387Z,77.67
2023-04-03T05:54:54.336Z,77.99
2023-04-03T05:55:54.325Z,77.67
2023-04-03T05:56:54.320Z,78.15
2023-04-03T05:57:54.322Z,74.28
2023-04-03T05:58:54.267Z,77.50
2023-04-03T05:59:54.249Z,75.09
2023-04-03T06:00:54.235Z,76.70
2023-04-03T06:01:54.225Z,75.73
2023-04-03T06:02:54.326Z,74.28
2023-04-03T06:03:54.340Z,77.34
2023-04-03T06:04:54.325Z,76.54
2023-04-03T06:05:54.132Z,74.60
2023-04-03T06:06:54.132Z,72.51
2023-04-03T06:07:54.102Z,76.70
2023-04-03T06:08:54.103Z,77.83
2023-04-03T06:09:54.039Z,76.86
2023-04-03T06:10:55.029Z,77.02
2023-04-03T06:11:54.004Z,76.38
2023-04-03T06:12:53.987Z,75.89
2023-04-03T06:13:53.996Z,77.67
2023-04-03T06:14:53.952Z,72.67
2023-04-03T06:15:53.920Z,76.54
2023-04-03T06:16:53.995Z,76.22
2023-04-03T06:17:53.903Z,74.28
2023-04-03T06:18:53.889Z,74.60
2023-04-03T06:19:53.842Z,75.25
2023-04-03T06:20:53.821Z,72.35
2023-04-03T06:21:53.812Z,76.22
2023-04-03T06:22:53.789Z,76.54
2023-04-03T06:23:53.796Z,74.93
2023-04-03T06:24:53.750Z,78.79
2023-04-03T06:25:53.730Z,75.73
2023-04-03T06:26:53.718Z,74.93
2023-04-03T06:27:53.694Z,76.70
2023-04-03T06:28:53.710Z,73.15
2023-04-03T06:29:53.878Z,74.28
2023-04-03T06:30:53.658Z,72.19
2023-04-03T06:31:53.623Z,74.28
2023-04-03T06:32:53.647Z,75.25
2023-04-03T06:33:53.627Z,78.79
2023-04-03T06:34:53.571Z,76.22
2023-04-03T06:35:53.567Z,73.32
2023-04-03T06:36:53.549Z,75.41
2023-04-03T06:37:53.511Z,74.44
2023-04-03T06:38:53.528Z,73.96
2023-04-03T06:39:53.484Z,71.22
2023-04-03T06:40:53.462Z,68.96
2023-04-03T06:41:53.439Z,68.48
2023-04-03T06:42:53.623Z,75.25
2023-04-03T06:43:53.425Z,74.12
2023-04-03T06:44:53.384Z,74.44
2023-04-03T06:45:53.385Z,79.12
2023-04-03T06:46:53.350Z,79.12
2023-04-03T06:47:53.374Z,74.93
2023-04-03T06:48:53.332Z,73.15
2023-04-03T06:49:53.294Z,73.96
2023-04-03T06:50:53.273Z,75.09
2023-04-03T06:51:53.251Z,73.80
2023-04-03T06:52:53.230Z,74.77
2023-04-03T06:53:53.245Z,75.57
2023-04-03T06:54:53.192Z,77.34
2023-04-03T06:55:53.358Z,78.96
2023-04-03T06:56:53.193Z,76.54
2023-04-03T06:57:53.136Z,76.22
2023-04-03T06:58:53.154Z,78.15
2023-04-03T06:59:53.115Z,74.93
2023-04-03T07:00:53.091Z,77.34
2023-04-03T07:01:53.120Z,77.99
2023-04-03T07:02:53.079Z,75.25
2023-04-03T07:03:53.058Z,74.28
2023-04-03T07:04:53.112Z,73.64
2023-04-03T07:05:52.995Z,75.25
2023-04-03T07:06:52.978Z,72.19
2023-04-03T07:07:52.951Z,75.09
2023-04-03T07:08:52.975Z,70.58
2023-04-03T07:09:52.921Z,72.67
2023-04-03T07:10:52.908Z,77.83
2023-04-03T07:11:52.886Z,79.44
2023-04-03T07:12:52.865Z,74.44
2023-04-03T07:13:52.877Z,75.09
2023-04-03T07:14:52.824Z,73.64
2023-04-03T07:15:52.861Z,74.28
2023-04-03T07:16:52.795Z,73.32
2023-04-03T07:17:52.854Z,73.64
2023-04-03T07:18:52.784Z,74.77
2023-04-03T07:19:52.739Z,76.54
2023-04-03T07:20:52.715Z,77.50
2023-04-03T07:21:52.696Z,73.15
2023-04-03T07:22:52.689Z,74.77
2023-04-03T07:23:52.708Z,73.48
2023-04-03T07:24:52.642Z,78.47
2023-04-03T07:25:52.625Z,74.28
2023-04-03T07:26:52.608Z,73.15
2023-04-03T07:27:52.586Z,77.99
2023-04-03T07:28:52.596Z,74.28
2023-04-03T07:29:53.853Z,72.03
2023-04-03T07:30:52.525Z,76.05
2023-04-03T07:31:52.571Z,75.73
2023-04-03T07:32:52.574Z,75.57
2023-04-03T07:33:52.480Z,76.38
2023-04-03T07:34:52.484Z,76.22
2023-04-03T07:35:52.460Z,77.18
2023-04-03T07:36:52.420Z,75.09
2023-04-03T07:37:52.404Z,77.50
2023-04-03T07:38:52.382Z,75.25
2023-04-03T07:39:52.401Z,69.45
2023-04-03T07:40:52.343Z,67.51
2023-04-03T07:41:52.325Z,71.38
2023-04-03T07:42:52.316Z,75.09
2023-04-03T07:43:52.326Z,75.41
2023-04-03T07:44:52.286Z,76.38
2023-04-03T07:45:52.276Z,75.25
2023-04-03T07:46:52.235Z,73.96
2023-04-03T07:47:52.214Z,75.73
2023-04-03T07:48:52.224Z,75.25
2023-04-03T07:49:52.201Z,74.77
2023-04-03T07:50:52.158Z,76.70
2023-04-03T07:51:52.132Z,74.60
2023-04-03T07:52:52.118Z,73.15
2023-04-03T07:53:52.105Z,76.22
2023-04-03T07:54:52.112Z,74.93
2023-04-03T07:55:52.057Z,74.12
2023-04-03T07:56:52.095Z,76.86
2023-04-03T07:57:52.026Z,75.89
2023-04-03T07:58:51.999Z,74.93
2023-04-03T07:59:52.013Z,77.83
2023-04-03T08:00:51.961Z,75.41
2023-04-03T08:01:51.947Z,74.93
2023-04-03T08:02:52.033Z,73.15
2023-04-03T08:03:52.065Z,73.32
2023-04-03T08:04:52.065Z,73.15
2023-04-03T08:05:51.907Z,77.02
2023-04-03T08:06:51.855Z,77.50
2023-04-03T08:07:51.836Z,76.86
2023-04-03T08:08:52.544Z,72.03
2023-04-03T08:09:51.947Z,76.54
2023-04-03T08:10:51.800Z,75.41
2023-04-03T08:11:51.762Z,74.12
2023-04-03T08:12:52.614Z,75.57
2023-04-03T08:13:53.630Z,75.25
2023-04-03T08:14:51.861Z,74.93
2023-04-03T08:15:51.684Z,76.38
2023-04-03T08:16:51.685Z,75.57
2023-04-03T08:17:51.686Z,77.83
2023-04-03T08:18:51.626Z,75.89
2023-04-03T08:19:51.648Z,75.89
2023-04-03T08:20:51.585Z,76.05
2023-04-03T08:21:51.565Z,77.02
2023-04-03T08:22:51.576Z,74.93
2023-04-03T08:23:51.565Z,74.93
2023-04-03T08:24:58.426Z,72.19
2023-04-03T08:25:53.494Z,74.12
2023-04-03T08:26:51.481Z,75.25
2023-04-03T08:27:51.461Z,74.93
2023-04-03T08:28:51.452Z,75.73
2023-04-03T08:29:51.454Z,76.22
2023-04-03T08:30:51.455Z,79.12
2023-04-03T08:31:51.413Z,77.02
2023-04-03T08:32:51.404Z,77.34
2023-04-03T08:33:51.376Z,75.09
2023-04-03T08:34:51.357Z,74.28
2023-04-03T08:35:51.334Z,75.25
2023-04-03T08:36:51.287Z,73.96
2023-04-03T08:37:51.265Z,77.18
2023-04-03T08:38:51.248Z,72.19
2023-04-03T08:39:51.267Z,72.03
2023-04-03T08:40:51.207Z,77.34
2023-04-03T08:41:51.192Z,75.73
2023-04-03T08:42:51.179Z,75.41
2023-04-03T08:43:51.156Z,75.25
2023-04-03T08:44:51.170Z,75.89
2023-04-03T08:45:51.159Z,73.80
2023-04-03T08:46:51.105Z,73.15
2023-04-03T08:47:51.706Z,74.12
2023-04-03T08:48:52.069Z,75.25
2023-04-03T08:49:51.084Z,69.45
2023-04-03T08:50:53.047Z,75.41
2023-04-03T08:51:51.015Z,75.25
2023-04-03T08:52:50.988Z,76.05
2023-04-03T08:53:51.097Z,77.02
2023-04-03T08:54:50.957Z,71.87
2023-04-03T08:55:50.938Z,74.60
2023-04-03T08:56:50.951Z,77.02
2023-04-03T08:57:50.896Z,72.03
2023-04-03T08:58:50.917Z,72.99
2023-04-03T08:59:50.884Z,76.86
2023-04-03T09:00:50.839Z,72.67
2023-04-03T09:01:50.858Z,73.32
2023-04-03T09:02:50.823Z,72.99
2023-04-03T09:03:50.848Z,74.60
2023-04-03T09:04:50.784Z,73.80
2023-04-03T09:05:50.742Z,73.96
2023-04-03T09:06:50.730Z,74.93
2023-04-03T09:07:50.711Z,76.38
2023-04-03T09:08:50.678Z,77.67
2023-04-03T09:09:50.764Z,77.67
2023-04-03T09:10:50.648Z,77.50
2023-04-03T09:11:50.619Z,75.73
2023-04-03T09:12:50.596Z,76.22
2023-04-03T09:13:50.576Z,75.25
2023-04-03T09:14:50.586Z,76.86
2023-04-03T09:15:50.556Z,74.77
2023-04-03T09:16:50.524Z,72.51
2023-04-03T09:17:50.548Z,76.70
2023-04-03T09:18:50.478Z,77.34
2023-04-03T09:19:50.522Z,78.31
2023-04-03T09:20:50.438Z,76.38
2023-04-03T09:21:50.417Z,76.86
2023-04-03T09:22:52.770Z,76.38
2023-04-03T09:23:51.382Z,75.09
2023-04-03T09:24:50.378Z,75.09
2023-04-03T09:25:50.393Z,74.28
2023-04-03T09:26:51.312Z,76.22
2023-04-03T09:27:50.288Z,76.22
2023-04-03T09:28:51.107Z,77.83
2023-04-03T09:29:51.270Z,75.73
2023-04-03T09:30:50.214Z,76.86
2023-04-03T09:31:50.209Z,77.34
2023-04-03T09:32:50.235Z,78.63
2023-04-03T09:33:50.155Z,74.44
2023-04-03T09:34:50.168Z,75.57
2023-04-03T09:35:50.173Z,71.54
2023-04-03T09:36:50.092Z,72.03
2023-04-03T09:37:51.075Z,76.70
2023-04-03T09:38:50.055Z,78.63
2023-04-03T09:39:50.099Z,78.47
2023-04-03T09:40:50.021Z,78.47
2023-04-03T09:41:50.076Z,77.99
2023-04-03T09:42:59.038Z,78.15
2023-04-03T09:43:50.966Z,75.73
2023-04-03T09:44:49.975Z,77.02
2023-04-03T09:45:49.927Z,75.73
2023-04-03T09:46:49.930Z,77.99
2023-04-03T09:47:49.913Z,74.60
2023-04-03T09:48:52.277Z,76.38
2023-04-03T09:49:51.896Z,76.70
2023-04-03T09:50:49.842Z,73.96
2023-04-03T09:51:49.825Z,72.51
2023-04-03T09:52:49.808Z,74.93
2023-04-03T09:53:49.788Z,73.48
2023-04-03T09:54:49.804Z,75.09
2023-04-03T09:55:49.753Z,74.12
2023-04-03T09:56:49.771Z,75.73
2023-04-03T09:57:51.041Z,75.89
2023-04-03T09:58:51.092Z,74.77
2023-04-03T09:59:50.710Z,73.15
2023-04-03T10:00:49.670Z,75.41
2023-04-03T10:01:49.654Z,74.12
2023-04-03T10:02:49.650Z,77.34
2023-04-03T10:03:49.613Z,76.38
2023-04-03T10:04:58.727Z,74.28
2023-04-03T10:05:50.571Z,75.41
2023-04-03T10:06:49.573Z,76.54
2023-04-03T10:08:01.634Z,74.12
2023-04-03T10:08:51.528Z,76.70
2023-04-03T10:09:49.535Z,77.18
2023-04-03T10:10:49.496Z,77.99
2023-04-03T10:11:49.470Z,71.06
2023-04-03T10:12:49.462Z,73.32
2023-04-03T10:13:51.212Z,76.54
2023-04-03T10:14:50.449Z,73.64
2023-04-03T10:15:49.402Z,74.44
2023-04-03T10:16:49.419Z,76.86
2023-04-03T10:17:49.393Z,77.50
2023-04-03T10:18:49.345Z,72.67
2023-04-03T10:19:49.371Z,74.77
2023-04-03T10:20:49.312Z,77.67
2023-04-03T10:21:49.298Z,75.25
2023-04-03T10:22:49.282Z,72.99
2023-04-03T10:23:49.257Z,77.50
2023-04-03T10:24:49.247Z,75.25
2023-04-03T10:25:49.252Z,75.89
2023-04-03T10:26:49.207Z,75.41
2023-04-03T10:27:49.188Z,77.34
2023-04-03T10:28:49.191Z,75.41
2023-04-03T10:29:49.231Z,74.93
2023-04-03T10:30:49.202Z,77.50
2023-04-03T10:31:49.125Z,75.25
2023-04-03T10:32:49.165Z,75.89
2023-04-03T10:33:49.089Z,73.96
2023-04-03T10:35:02.294Z,76.70
2023-04-03T10:35:51.110Z,75.41
2023-04-03T10:36:49.046Z,75.89
2023-04-03T10:37:49.027Z,71.22
2023-04-03T10:38:49.005Z,74.28
2023-04-03T10:39:48.986Z,78.96
2023-04-03T10:40:49.001Z,77.34
2023-04-03T10:42:48.933Z,71.87
2023-04-03T10:43:48.924Z,70.42
2023-04-03T10:44:48.913Z,77.67
2023-04-03T10:45:49.004Z,77.02
2023-04-03T10:46:48.865Z,75.41
2023-04-03T10:47:48.891Z,76.05
2023-04-03T10:48:48.834Z,76.38
2023-04-03T10:49:57.079Z,75.89
2023-04-03T10:50:50.829Z,73.80
2023-04-03T10:51:48.782Z,76.05
2023-04-03T10:52:48.767Z,73.64
2023-04-03T10:53:48.751Z,76.54
2023-04-03T10:54:48.735Z,75.89
2023-04-03T10:55:48.746Z,71.70
2023-04-03T10:56:55.341Z,73.80
2023-04-03T10:57:49.729Z,74.12
2023-04-03T10:58:48.677Z,77.67
2023-04-03T10:59:48.652Z,71.87
2023-04-03T11:00:48.665Z,75.57
2023-04-03T11:01:48.785Z,74.44
2023-04-03T11:02:48.681Z,75.25
2023-04-03T11:03:48.701Z,77.18
2023-04-03T11:04:48.933Z,75.41
2023-04-03T11:05:48.596Z,77.83
2023-04-03T11:06:48.562Z,78.79
2023-04-03T11:07:48.518Z,77.67
2023-04-03T11:08:48.498Z,75.41
2023-04-03T11:09:48.480Z,74.77
2023-04-03T11:10:48.491Z,74.93
2023-04-03T11:11:49.475Z,74.44
2023-04-03T11:12:48.430Z,71.22
2023-04-03T11:13:48.417Z,71.38
2023-04-03T11:14:48.391Z,78.31
2023-04-03T11:15:48.385Z,77.67
2023-04-03T11:16:53.981Z,78.63
2023-04-03T11:17:50.456Z,75.57
2023-04-03T11:18:48.326Z,74.93
2023-04-03T11:19:48.311Z,73.15
2023-04-03T11:20:48.290Z,72.51
2023-04-03T11:21:48.305Z,70.25
2023-04-03T11:22:48.253Z,76.70
2023-04-03T11:23:49.893Z,76.05
2023-04-03T11:24:49.227Z,74.60
2023-04-03T11:25:48.235Z,71.06
2023-04-03T11:26:48.192Z,73.32
2023-04-03T11:27:48.203Z,77.67
2023-04-03T11:28:48.149Z,73.80
2023-04-03T11:29:48.145Z,76.86
2023-04-03T11:30:48.144Z,75.25
2023-04-03T11:31:48.151Z,76.54
2023-04-03T11:32:48.083Z,74.28
2023-04-03T11:33:48.134Z,74.28
2023-04-03T11:34:48.047Z,73.15
2023-04-03T11:35:48.077Z,74.12
2023-04-03T11:36:48.012Z,75.09
2023-04-03T11:37:48.025Z,75.25
2023-04-03T11:38:47.981Z,70.25
2023-04-03T11:39:47.969Z,71.06
2023-04-03T11:40:47.973Z,74.77
2023-04-03T11:41:47.965Z,77.50
2023-04-03T11:42:47.950Z,73.96
2023-04-03T11:43:47.884Z,74.12
2023-04-03T11:44:47.870Z,74.28
2023-04-03T11:45:47.888Z,76.70
2023-04-03T11:46:47.867Z,74.12
2023-04-03T11:47:48.780Z,73.64
2023-04-03T11:48:47.802Z,73.80
2023-04-03T11:49:47.857Z,75.41
2023-04-03T11:50:47.796Z,77.18
2023-04-03T11:51:47.751Z,76.22
2023-04-03T11:52:48.489Z,75.73
2023-04-03T11:53:47.711Z,76.86
2023-04-03T11:54:47.718Z,76.70
2023-04-03T11:55:47.722Z,77.34
2023-04-03T11:56:47.653Z,76.86
2023-04-03T11:57:47.652Z,72.99
2023-04-03T11:58:47.622Z,77.34
2023-04-03T11:59:47.596Z,78.63
2023-04-03T12:00:48.620Z,78.31
2023-04-03T12:01:47.614Z,74.93
2023-04-03T12:02:54.372Z,74.60
2023-04-03T12:03:49.588Z,77.50
2023-04-03T12:04:47.519Z,76.54
2023-04-03T12:05:47.608Z,74.93
2023-04-03T12:06:47.483Z,73.80
2023-04-03T12:07:47.473Z,73.64
2023-04-03T12:08:47.486Z,77.18
2023-04-03T12:09:47.439Z,77.99
2023-04-03T12:10:47.445Z,77.34
2023-04-03T12:11:47.398Z,75.57
2023-04-03T12:12:47.392Z,73.96
2023-04-03T12:13:47.369Z,74.60
2023-04-03T12:14:47.337Z,77.67
2023-04-03T12:15:47.355Z,77.83
2023-04-03T12:16:47.337Z,74.28
2023-04-03T12:17:47.318Z,74.77
2023-04-03T12:18:47.287Z,74.60
2023-04-03T12:19:47.261Z,73.64
2023-04-03T12:20:47.291Z,74.28
2023-04-03T12:21:47.355Z,75.09
2023-04-03T12:22:47.207Z,73.80
2023-04-03T12:23:47.222Z,77.18
2023-04-03T12:24:47.173Z,77.50
2023-04-03T12:25:47.190Z,74.44
2023-04-03T12:26:49.096Z,74.12
2023-04-03T12:27:48.116Z,75.89
2023-04-03T12:28:47.101Z,78.47
2023-04-03T12:29:47.098Z,76.05
2023-04-03T12:30:47.099Z,73.64
2023-04-03T12:31:47.081Z,77.18
2023-04-03T12:32:47.042Z,76.70
2023-04-03T12:33:47.024Z,77.50
2023-04-03T12:34:47.000Z,76.70
2023-04-03T12:35:47.055Z,78.79
2023-04-03T12:36:46.986Z,75.57
2023-04-03T12:37:47.020Z,76.05
2023-04-03T12:38:46.937Z,78.47
2023-04-03T12:39:46.910Z,73.80
2023-04-03T12:40:46.886Z,74.93
2023-04-03T12:41:46.912Z,75.89
2023-04-03T12:42:46.851Z,72.35
2023-04-03T12:43:46.839Z,76.38
2023-04-03T12:44:46.814Z,76.05
2023-04-03T12:45:46.853Z,72.03
2023-04-03T12:46:47.843Z,76.38
2023-04-03T12:47:46.791Z,73.96
2023-04-03T12:48:46.744Z,76.70
2023-04-03T12:49:46.738Z,75.89
2023-04-03T12:50:46.712Z,76.70
2023-04-03T12:51:46.724Z,76.05
2023-04-03T12:52:46.673Z,75.89